Time;durP1;ratioP1;P1;durP2;ratioP2;P2;SDS_P1;SDS_P2;PMS_P1;PMS_P2;Temp;Humidity;BMP_temperature;BMP_pressure;BME280_temperature;BME280_humidity;BME280_pressure;Samples;Min_cycle;Max_cycle;Signal;HPM_P1;HPM_P2
2023/09/09 00:00:56;;;;;;;15.45;13.80;;;;;;;19.98;100.00;101429.44;5071524;28;20054;-61
2023/09/09 00:03:25;;;;;;;16.48;14.35;;;;;;;19.99;100.00;101422.25;5071395;28;20040;-60
2023/09/09 00:05:54;;;;;;;14.80;13.27;;;;;;;20.00;100.00;101430.16;5069882;28;20380;-61
2023/09/09 00:08:24;;;;;;;15.65;13.73;;;;;;;19.98;100.00;101431.28;5067681;28;20170;-61
2023/09/09 00:10:53;;;;;;;16.23;14.52;;;;;;;19.97;100.00;101432.25;5069716;28;20084;-61
2023/09/09 00:13:21;;;;;;;15.70;14.10;;;;;;;19.89;100.00;101422.31;5070846;28;20112;-61
2023/09/09 00:15:54;;;;;;;16.83;15.13;;;;;;;19.86;100.00;101423.44;5071025;28;20047;-61
2023/09/09 00:18:23;;;;;;;18.65;14.63;;;;;;;19.84;100.00;101419.25;5069298;28;20102;-61
2023/09/09 00:20:52;;;;;;;16.15;13.57;;;;;;;19.79;100.00;101427.66;5072647;28;20116;-61
2023/09/09 00:23:20;;;;;;;15.13;13.50;;;;;;;19.76;100.00;101422.63;5073095;28;20055;-61
2023/09/09 00:25:51;;;;;;;15.52;13.77;;;;;;;19.72;100.00;101416.72;5071433;28;20472;-61
2023/09/09 00:28:21;;;;;;;16.52;13.50;;;;;;;19.70;100.00;101423.19;5069644;28;20056;-61
2023/09/09 00:30:50;;;;;;;17.00;13.75;;;;;;;19.66;100.00;101424.47;5069515;28;20052;-61
2023/09/09 00:33:18;;;;;;;15.95;13.05;;;;;;;19.65;100.00;101414.81;5072480;28;20036;-61
2023/09/09 00:35:47;;;;;;;17.73;13.38;;;;;;;19.63;100.00;101414.94;5073012;28;20048;-61
2023/09/09 00:38:17;;;;;;;16.15;12.60;;;;;;;19.63;100.00;101414.09;5071997;28;20056;-61
2023/09/09 00:41:14;;;;;;;15.88;12.93;;;;;;;19.62;100.00;101413.28;5068824;28;20061;-61
2023/09/09 00:43:43;;;;;;;15.57;13.88;;;;;;;19.59;100.00;101414.41;5068770;28;20045;-61
2023/09/09 00:46:12;;;;;;;15.18;13.55;;;;;;;19.53;100.00;101416.81;5069532;28;20439;-61
2023/09/09 00:48:41;;;;;;;18.08;13.18;;;;;;;19.51;100.00;101411.63;5069613;28;20048;-61
2023/09/09 00:51:12;;;;;;;14.70;13.15;;;;;;;19.49;100.00;101404.75;5070788;28;20450;-61
2023/09/09 00:53:41;;;;;;;15.85;13.70;;;;;;;19.47;100.00;101414.69;5066831;28;20230;-61
2023/09/09 00:56:11;;;;;;;18.63;14.00;;;;;;;19.38;100.00;101414.59;5068832;28;20045;-61
2023/09/09 00:58:40;;;;;;;15.60;13.23;;;;;;;19.35;100.00;101409.53;5069144;28;20072;-61
2023/09/09 01:01:09;;;;;;;14.70;13.13;;;;;;;19.39;100.00;101416.28;5072244;28;20518;-61
2023/09/09 01:03:37;;;;;;;17.40;13.50;;;;;;;19.32;100.00;101409.84;5072173;28;20054;-61
2023/09/09 01:06:07;;;;;;;14.52;13.07;;;;;;;19.26;100.00;101410.41;5072140;28;20514;-61
2023/09/09 01:08:35;;;;;;;15.32;13.60;;;;;;;19.28;100.00;101407.59;5068851;28;20407;-61
2023/09/09 01:11:05;;;;;;;14.68;13.18;;;;;;;19.27;100.00;101412.09;5068685;28;20052;-61
2023/09/09 01:13:34;;;;;;;17.25;14.32;;;;;;;19.29;100.00;101412.78;5072104;28;20139;-61
2023/09/09 01:16:06;;;;;;;14.35;12.85;;;;;;;19.23;100.00;101416.84;5071869;28;20058;-61
2023/09/09 01:18:35;;;;;;;16.83;13.55;;;;;;;19.24;100.00;101401.72;5069619;28;20053;-61
2023/09/09 01:21:07;;;;;;;15.63;13.52;;;;;;;19.21;100.00;101410.84;5069159;28;20047;-61
2023/09/09 01:23:38;;;;;;;17.10;14.02;;;;;;;19.22;100.00;101403.66;5071991;28;20048;-61
2023/09/09 01:26:07;;;;;;;17.55;13.35;;;;;;;19.21;100.00;101402.84;5071672;28;20126;-61
2023/09/09 01:28:36;;;;;;;17.30;13.93;;;;;;;19.14;100.00;101403.53;5069189;28;20050;-61
2023/09/09 01:31:05;;;;;;;18.13;14.68;;;;;;;19.09;100.00;101407.47;5068104;28;20052;-61
2023/09/09 01:33:33;;;;;;;16.50;13.57;;;;;;;19.05;100.00;101406.09;5067812;28;20094;-61
2023/09/09 01:36:03;;;;;;;17.67;14.15;;;;;;;19.05;100.00;101411.41;5068421;28;20442;-62
2023/09/09 01:38:34;;;;;;;16.55;14.80;;;;;;;18.97;100.00;101402.47;5066634;28;20510;-62
2023/09/09 01:41:04;;;;;;;16.92;14.77;;;;;;;18.97;100.00;101407.78;5068352;28;20044;-62
2023/09/09 01:43:33;;;;;;;18.90;15.57;;;;;;;18.98;100.00;101407.63;5067994;28;20037;-62
2023/09/09 01:46:02;;;;;;;17.35;15.60;;;;;;;18.97;100.00;101413.94;5071063;28;20436;-62
2023/09/09 01:48:30;;;;;;;17.52;15.68;;;;;;;18.92;100.00;101408.19;5067676;28;20058;-60
2023/09/09 01:50:59;;;;;;;20.92;15.95;;;;;;;18.87;100.00;101399.75;5068166;28;20591;-60
2023/09/09 01:53:27;;;;;;;20.60;16.65;;;;;;;18.82;100.00;101399.34;5065206;28;20122;-61
2023/09/09 01:55:58;;;;;;;18.08;15.98;;;;;;;18.84;100.00;101405.34;5067509;28;20139;-61
2023/09/09 01:58:28;;;;;;;17.15;15.35;;;;;;;18.86;100.00;101403.41;5067714;28;20045;-60
2023/09/09 02:00:56;;;;;;;17.73;15.85;;;;;;;18.85;100.00;101402.56;5067489;28;20110;-60
2023/09/09 02:03:25;;;;;;;18.63;16.33;;;;;;;18.85;100.00;101404.38;5071023;28;20044;-61
2023/09/09 02:05:54;;;;;;;19.55;16.23;;;;;;;18.86;100.00;101408.75;5071262;28;20071;-61
2023/09/09 02:08:22;;;;;;;18.45;15.52;;;;;;;18.76;100.00;101398.09;5071288;28;20067;-61
2023/09/09 02:10:51;;;;;;;16.88;15.07;;;;;;;18.77;100.00;101406.91;5068533;28;20040;-62
2023/09/09 02:13:19;;;;;;;17.83;15.48;;;;;;;18.75;100.00;101407.88;5067277;28;20052;-60
2023/09/09 02:15:49;;;;;;;17.67;15.52;;;;;;;18.68;100.00;101406.78;5067914;28;20048;-60
2023/09/09 02:18:18;;;;;;;17.77;15.52;;;;;;;18.65;100.00;101404.38;5067323;28;20136;-61
2023/09/09 02:20:47;;;;;;;17.83;15.18;;;;;;;18.69;100.00;101399.59;5067671;28;20037;-61
2023/09/09 02:23:15;;;;;;;17.20;15.38;;;;;;;18.63;100.00;101398.34;5065800;28;20048;-61
2023/09/09 02:25:44;;;;;;;18.17;15.93;;;;;;;18.57;100.00;101394.44;5066855;28;20106;-61
2023/09/09 02:28:13;;;;;;;17.55;15.68;;;;;;;18.49;100.00;101393.44;5070453;28;20059;-61
2023/09/09 02:30:44;;;;;;;18.42;16.42;;;;;;;18.45;100.00;101384.88;5066084;28;20044;-61
2023/09/09 02:33:14;;;;;;;18.00;15.05;;;;;;;18.45;100.00;101386.69;5068942;28;20097;-61
2023/09/09 02:35:44;;;;;;;17.38;15.07;;;;;;;18.41;100.00;101381.66;5068389;28;20463;-61
2023/09/09 02:38:13;;;;;;;19.48;17.45;;;;;;;18.47;100.00;101387.41;5065969;28;20054;-61
2023/09/09 02:40:41;;;;;;;18.95;16.98;;;;;;;18.49;100.00;101390.78;5071357;28;20063;-61
2023/09/09 02:43:10;;;;;;;20.20;16.15;;;;;;;18.42;100.00;101386.00;5075044;28;20048;-60
2023/09/09 02:45:39;;;;;;;17.70;15.80;;;;;;;18.46;100.00;101391.91;5075099;28;20045;-61
2023/09/09 02:48:08;;;;;;;23.10;17.30;;;;;;;18.41;100.00;101389.63;5072712;28;20040;-60
2023/09/09 02:50:38;;;;;;;18.92;16.23;;;;;;;18.44;100.00;101393.00;5071264;28;20186;-61
2023/09/09 02:53:06;;;;;;;18.95;16.70;;;;;;;18.38;100.00;101397.91;5074350;28;20111;-61
2023/09/09 02:55:35;;;;;;;19.13;17.15;;;;;;;18.33;100.00;101386.81;5069636;28;20469;-60
2023/09/09 02:58:04;;;;;;;21.48;18.48;;;;;;;18.34;100.00;101391.16;5071814;28;20127;-61
2023/09/09 03:00:33;;;;;;;19.38;17.35;;;;;;;18.29;100.00;101396.06;5071295;28;20590;-60
2023/09/09 03:03:01;;;;;;;20.45;18.33;;;;;;;18.30;100.00;101386.28;5073689;28;20139;-61
2023/09/09 03:05:30;;;;;;;19.75;17.67;;;;;;;18.26;100.00;101390.19;5074593;28;20505;-61
2023/09/09 03:08:00;;;;;;;22.50;18.80;;;;;;;18.24;100.00;101390.28;5069234;28;20376;-55
2023/09/09 03:10:28;;;;;;;21.42;19.20;;;;;;;18.18;100.00;101396.19;5070958;28;20036;-55
2023/09/09 03:12:57;;;;;;;23.52;19.52;;;;;;;18.27;100.00;101395.38;5070915;28;20503;-56
2023/09/09 03:15:26;;;;;;;20.42;18.13;;;;;;;18.22;100.00;101390.44;5071120;28;20040;-56
2023/09/09 03:17:54;;;;;;;21.05;18.85;;;;;;;18.18;100.00;101386.38;5070359;28;20048;-56
2023/09/09 03:20:23;;;;;;;21.90;18.50;;;;;;;18.18;100.00;101383.72;5071144;28;20534;-56
2023/09/09 03:22:53;;;;;;;20.23;18.05;;;;;;;18.22;100.00;101384.28;5071169;28;20147;-56
2023/09/09 03:25:23;;;;;;;21.63;18.27;;;;;;;18.18;100.00;101389.03;5071441;28;20056;-56
2023/09/09 03:27:51;;;;;;;19.27;17.13;;;;;;;18.14;100.00;101392.94;5070117;28;20047;-55
2023/09/09 03:30:21;;;;;;;19.10;17.10;;;;;;;18.17;100.00;101392.66;5069854;28;20045;-56
2023/09/09 03:32:49;;;;;;;19.98;17.50;;;;;;;18.13;100.00;101391.25;5069933;28;20801;-55
2023/09/09 03:35:18;;;;;;;22.33;17.98;;;;;;;18.07;100.00;101386.50;5072923;28;20045;-55
2023/09/09 03:37:46;;;;;;;22.25;18.45;;;;;;;18.08;100.00;101381.03;5068488;28;20114;-55
2023/09/09 03:40:15;;;;;;;21.15;18.70;;;;;;;18.06;100.00;101383.00;5070539;28;20106;-55
2023/09/09 03:42:45;;;;;;;23.33;20.33;;;;;;;18.07;100.00;101386.50;5070139;28;20116;-55
2023/09/09 03:45:14;;;;;;;22.17;19.67;;;;;;;18.05;100.00;101386.63;5070803;28;20080;-55
2023/09/09 03:47:42;;;;;;;23.10;19.88;;;;;;;18.02;100.00;101386.88;5069178;28;20041;-56
2023/09/09 03:50:10;;;;;;;22.55;18.00;;;;;;;17.98;100.00;101388.13;5070416;28;20135;-55
2023/09/09 03:52:39;;;;;;;20.98;18.67;;;;;;;17.93;100.00;101387.72;5067908;28;20515;-56
2023/09/09 03:55:08;;;;;;;21.52;18.33;;;;;;;17.94;100.00;101391.19;5070875;28;20043;-56
2023/09/09 03:57:36;;;;;;;19.30;17.33;;;;;;;17.86;100.00;101392.69;5070037;28;20052;-56
2023/09/09 04:00:09;;;;;;;18.90;16.90;;;;;;;17.89;100.00;101387.09;5073091;28;20052;-55
2023/09/09 04:02:37;;;;;;;18.60;15.95;;;;;;;17.88;100.00;101387.25;5071537;28;20051;-56
2023/09/09 04:05:07;;;;;;;19.92;15.85;;;;;;;17.89;100.00;101399.56;5070172;28;20049;-55
2023/09/09 04:07:36;;;;;;;20.42;17.20;;;;;;;17.82;100.00;101393.06;5071999;28;20789;-55
2023/09/09 04:10:06;;;;;;;18.63;16.17;;;;;;;17.81;100.00;101396.75;5070249;28;20044;-56
2023/09/09 04:12:35;;;;;;;18.98;17.08;;;;;;;17.82;100.00;101393.06;5068822;28;20109;-55
2023/09/09 04:15:03;;;;;;;19.67;15.95;;;;;;;17.81;100.00;101394.06;5073532;28;20041;-56
2023/09/09 04:17:33;;;;;;;17.63;15.73;;;;;;;17.77;100.00;101393.50;5073370;28;20048;-56
2023/09/09 04:20:03;;;;;;;18.67;16.73;;;;;;;17.72;100.00;101391.25;5073182;28;20044;-55
2023/09/09 04:22:31;;;;;;;18.45;16.42;;;;;;;17.69;100.00;101398.63;5067977;28;20219;-56
2023/09/09 04:25:00;;;;;;;19.92;17.83;;;;;;;17.70;100.00;101401.16;5069856;28;20045;-56
2023/09/09 04:27:29;;;;;;;19.92;17.83;;;;;;;17.69;100.00;101395.97;5069986;28;20056;-55
2023/09/09 04:29:57;;;;;;;19.98;17.90;;;;;;;17.67;100.00;101389.94;5069586;28;20114;-55
2023/09/09 04:32:26;;;;;;;21.35;18.95;;;;;;;17.65;100.00;101395.41;5070251;28;20114;-55
2023/09/09 04:34:57;;;;;;;23.17;18.67;;;;;;;17.65;100.00;101390.06;5069071;28;20155;-55
2023/09/09 04:37:27;;;;;;;21.83;18.75;;;;;;;17.66;100.00;101390.94;5064823;28;20361;-55
2023/09/09 04:39:56;;;;;;;21.77;19.30;;;;;;;17.60;100.00;101400.28;5070987;28;20045;-57
2023/09/09 04:42:25;;;;;;;21.02;18.33;;;;;;;17.60;100.00;101394.09;5070783;28;20044;-57
2023/09/09 04:44:54;;;;;;;21.35;19.15;;;;;;;17.57;100.00;101400.53;5067552;28;20041;-57
2023/09/09 04:47:22;;;;;;;20.50;18.33;;;;;;;17.50;100.00;101394.06;5067930;28;20487;-55
2023/09/09 04:49:51;;;;;;;19.75;17.48;;;;;;;17.52;100.00;101397.41;5066043;28;20044;-55
2023/09/09 04:52:21;;;;;;;21.00;17.48;;;;;;;17.52;100.00;101397.41;5063133;28;20033;-55
2023/09/09 04:54:49;;;;;;;20.08;17.98;;;;;;;17.49;100.00;101397.69;5067583;28;20047;-56
2023/09/09 04:57:17;;;;;;;22.95;18.00;;;;;;;17.40;100.00;101404.66;5069196;28;20064;-56
2023/09/09 04:59:49;;;;;;;18.95;16.15;;;;;;;17.36;100.00;101397.91;5067998;28;20368;-56
2023/09/09 05:02:17;;;;;;;18.02;16.13;;;;;;;17.39;100.00;101402.97;5065815;28;20167;-56
2023/09/09 05:04:46;;;;;;;17.88;15.98;;;;;;;17.39;100.00;101402.97;5067638;28;20368;-56
2023/09/09 05:07:16;;;;;;;18.65;16.75;;;;;;;17.38;100.00;101407.44;5068696;28;20062;-56
2023/09/09 05:09:47;;;;;;;18.88;16.30;;;;;;;17.33;100.00;101398.16;5067944;28;20055;-55
2023/09/09 05:12:15;;;;;;;19.27;16.83;;;;;;;17.33;100.00;101407.00;5065934;28;20040;-56
2023/09/09 05:14:44;;;;;;;20.08;17.27;;;;;;;17.36;100.00;101409.38;5068709;28;20040;-56
2023/09/09 05:17:13;;;;;;;21.33;19.00;;;;;;;17.36;100.00;101412.03;5072113;28;20503;-56
2023/09/09 05:19:41;;;;;;;22.50;18.48;;;;;;;17.29;100.00;101402.91;5071007;28;20447;-56
2023/09/09 05:22:10;;;;;;;23.73;18.98;;;;;;;17.31;100.00;101414.22;5067414;28;20114;-56
2023/09/09 05:24:38;;;;;;;20.83;17.52;;;;;;;17.37;100.00;101412.91;5067709;28;20044;-57
2023/09/09 05:27:08;;;;;;;21.27;18.13;;;;;;;17.33;100.00;101417.63;5068648;28;20052;-57
2023/09/09 05:29:36;;;;;;;23.63;19.92;;;;;;;17.30;100.00;101415.22;5068142;28;20048;-56
2023/09/09 05:32:06;;;;;;;22.05;19.42;;;;;;;17.29;100.00;101424.16;5069355;28;20044;-57
2023/09/09 05:34:34;;;;;;;23.80;21.30;;;;;;;17.28;100.00;101416.34;5071621;28;20098;-56
2023/09/09 05:37:03;;;;;;;24.15;21.17;;;;;;;17.28;100.00;101422.47;5071960;28;20056;-56
2023/09/09 05:39:31;;;;;;;23.70;21.20;;;;;;;17.30;100.00;101425.00;5069418;28;20400;-56
2023/09/09 05:42:00;;;;;;;26.38;23.50;;;;;;;17.30;100.00;101425.00;5068327;28;20127;-57
2023/09/09 05:44:30;;;;;;;28.08;25.17;;;;;;;17.31;100.00;101426.69;5070341;28;20044;-57
2023/09/09 05:46:59;;;;;;;32.20;27.90;;;;;;;17.36;100.00;101430.66;5069912;28;20049;-56
2023/09/09 05:49:29;;;;;;;35.85;30.92;;;;;;;17.38;100.00;101427.84;5067986;28;20578;-56
2023/09/09 05:52:07;;;;;;;44.30;39.10;;;;;;;17.42;100.00;101429.28;5066946;28;20052;-56
2023/09/09 05:54:35;;;;;;;53.80;46.00;;;;;;;17.51;100.00;101433.00;5067374;28;20075;-56
2023/09/09 05:57:04;;;;;;;58.53;48.17;;;;;;;17.50;100.00;101426.81;5071552;28;20043;-56
2023/09/09 05:59:34;;;;;;;69.80;56.92;;;;;;;17.55;100.00;101429.09;5071488;28;20042;-55
2023/09/09 06:02:03;;;;;;;75.93;59.15;;;;;;;17.58;100.00;101434.97;5071316;28;20122;-56
2023/09/09 06:04:31;;;;;;;78.95;65.05;;;;;;;17.63;100.00;101444.38;5068855;28;20046;-56
2023/09/09 06:07:00;;;;;;;80.75;68.07;;;;;;;17.65;100.00;101445.09;5066528;28;20559;-56
2023/09/09 06:09:28;;;;;;;85.57;73.38;;;;;;;17.67;100.00;101438.66;5067284;28;20538;-57
2023/09/09 06:11:57;;;;;;;81.80;72.80;;;;;;;17.72;100.00;101446.25;5067153;28;20076;-56
2023/09/09 06:14:26;;;;;;;89.07;75.47;;;;;;;17.74;100.00;101449.63;5066354;28;20404;-56
2023/09/09 06:16:55;;;;;;;88.55;74.38;;;;;;;17.77;100.00;101445.88;5067847;28;20052;-55
2023/09/09 06:19:24;;;;;;;82.57;73.68;;;;;;;17.81;100.00;101450.78;5067431;28;20401;-56
2023/09/09 06:21:53;;;;;;;88.22;73.97;;;;;;;17.87;100.00;101452.91;5066895;28;20090;-57
2023/09/09 06:24:21;;;;;;;81.70;72.80;;;;;;;17.99;100.00;101451.03;5069449;28;20048;-57
2023/09/09 06:26:49;;;;;;;84.82;75.47;;;;;;;17.99;100.00;101453.69;5067378;28;20053;-56
2023/09/09 06:29:18;;;;;;;83.05;72.45;;;;;;;18.06;100.00;101454.84;5067985;28;20058;-57
2023/09/09 06:31:47;;;;;;;88.72;75.45;;;;;;;18.12;100.00;101460.59;5066245;28;20064;-56
2023/09/09 06:34:17;;;;;;;86.53;76.82;;;;;;;18.20;100.00;101460.75;5070919;28;20135;-57
2023/09/09 06:36:45;;;;;;;81.63;71.75;;;;;;;18.32;100.00;101462.34;5071035;28;20047;-57
2023/09/09 06:39:13;;;;;;;81.30;72.20;;;;;;;18.39;100.00;101465.31;5068294;28;20052;-57
2023/09/09 06:41:42;;;;;;;83.68;73.55;;;;;;;18.41;100.00;101466.03;5067221;28;20056;-56
2023/09/09 06:44:10;;;;;;;87.90;74.85;;;;;;;18.41;100.00;101472.19;5070065;28;20051;-56
2023/09/09 06:46:39;;;;;;;79.97;70.88;;;;;;;18.45;100.00;101470.09;5067650;28;20510;-56
2023/09/09 06:49:07;;;;;;;79.53;70.80;;;;;;;18.50;100.00;101478.53;5067631;28;20055;-56
2023/09/09 06:51:37;;;;;;;87.68;77.25;;;;;;;18.58;100.00;101481.34;5068685;28;20499;-56
2023/09/09 06:54:06;;;;;;;87.60;76.85;;;;;;;18.51;100.00;101480.19;5070972;28;20127;-56
2023/09/09 06:56:35;;;;;;;84.50;75.20;;;;;;;18.58;100.00;101486.66;5070484;28;20395;-56
2023/09/09 06:59:03;;;;;;;86.95;77.55;;;;;;;18.64;100.00;101495.94;5067612;28;20045;-56
2023/09/09 07:01:32;;;;;;;84.22;75.15;;;;;;;18.66;100.00;101488.63;5066810;28;20515;-56
2023/09/09 07:04:01;;;;;;;81.00;72.43;;;;;;;18.75;100.00;101486.97;5066019;28;20036;-57
2023/09/09 07:06:29;;;;;;;87.88;76.25;;;;;;;18.82;100.00;101492.59;5067043;28;20045;-56
2023/09/09 07:08:59;;;;;;;84.20;75.07;;;;;;;18.86;100.00;101489.50;5065980;28;20048;-56
2023/09/09 07:11:28;;;;;;;85.28;75.93;;;;;;;18.94;100.00;101491.53;5066664;28;20102;-57
2023/09/09 07:13:56;;;;;;;86.78;77.10;;;;;;;18.99;100.00;101493.75;5067112;28;20488;-56
2023/09/09 07:16:25;;;;;;;92.90;80.47;;;;;;;19.05;100.00;101494.03;5067147;28;20053;-56
2023/09/09 07:18:53;;;;;;;90.05;77.60;;;;;;;19.11;100.00;101495.31;5066606;28;20500;-56
2023/09/09 07:21:22;;;;;;;92.68;80.00;;;;;;;19.24;100.00;101497.69;5065833;28;20060;-57
2023/09/09 07:23:50;;;;;;;96.85;82.57;;;;;;;19.31;100.00;101498.81;5065112;28;20072;-56
2023/09/09 07:26:20;;;;;;;90.07;78.13;;;;;;;19.38;100.00;101505.25;5071763;28;20044;-56
2023/09/09 07:28:49;;;;;;;93.10;78.78;;;;;;;19.46;100.00;101501.88;5074246;28;20114;-57
2023/09/09 07:31:18;;;;;;;91.57;78.82;;;;;;;19.54;100.00;101504.69;5074549;28;20102;-56
2023/09/09 07:33:46;;;;;;;94.95;79.03;;;;;;;19.56;100.00;101501.88;5070388;28;20056;-56
2023/09/09 07:36:15;;;;;;;91.88;79.32;;;;;;;19.67;100.00;101503.53;5070644;28;20049;-56
2023/09/09 07:38:43;;;;;;;96.30;81.78;;;;;;;19.71;100.00;101504.94;5068781;28;20804;-56
2023/09/09 07:41:12;;;;;;;108.18;86.88;;;;;;;19.71;100.00;101504.94;5070840;28;20530;-57
2023/09/09 07:43:42;;;;;;;103.55;84.05;;;;;;;19.79;100.00;101504.22;5070367;28;20053;-56
2023/09/09 07:46:11;;;;;;;93.32;77.45;;;;;;;19.85;100.00;101509.00;5069351;28;20040;-56
2023/09/09 07:48:40;;;;;;;100.43;80.32;;;;;;;19.89;100.00;101505.03;5069737;28;20048;-56
2023/09/09 07:51:09;;;;;;;91.13;78.03;;;;;;;20.01;100.00;101511.06;5070743;28;20040;-55
2023/09/09 07:53:37;;;;;;;80.95;71.30;;;;;;;20.08;100.00;101510.34;5067899;28;20377;-63
2023/09/09 07:56:06;;;;;;;82.20;70.43;;;;;;;20.09;100.00;101511.16;5070448;28;20044;-63
2023/09/09 07:58:35;;;;;;;82.03;70.05;;;;;;;20.22;100.00;101508.16;5070069;28;20569;-63
2023/09/09 08:01:08;;;;;;;86.10;71.82;;;;;;;20.25;100.00;101513.22;5071122;28;20053;-62
2023/09/09 08:03:36;;;;;;;83.55;69.75;;;;;;;20.33;100.00;101521.34;5069818;28;20057;-63
2023/09/09 08:06:07;;;;;;;86.55;73.07;;;;;;;20.40;100.00;101510.91;5069517;28;20048;-63
2023/09/09 08:08:36;;;;;;;91.55;74.13;;;;;;;20.45;100.00;101527.34;5072212;28;20068;-62
2023/09/09 08:11:05;;;;;;;90.10;72.63;;;;;;;20.52;100.00;101520.41;5071505;28;20056;-62
2023/09/09 08:13:34;;;;;;;90.15;73.47;;;;;;;20.60;100.00;101523.16;5068812;28;20080;-62
2023/09/09 08:16:03;;;;;;;98.20;79.20;;;;;;;20.58;100.00;101526.97;5070035;28;20041;-62
2023/09/09 08:18:33;;;;;;;94.15;75.30;;;;;;;20.65;100.00;101527.22;5069720;28;20686;-62
2023/09/09 08:21:03;;;;;;;99.43;77.65;;;;;;;20.80;100.00;101527.59;5070358;28;20048;-63
2023/09/09 08:23:33;;;;;;;89.35;71.30;;;;;;;20.91;100.00;101533.56;5068060;28;20052;-62
2023/09/09 08:26:01;;;;;;;95.57;75.28;;;;;;;21.03;100.00;101531.47;5069805;28;20044;-62
2023/09/09 08:28:30;;;;;;;93.35;75.55;;;;;;;21.13;100.00;101533.25;5069989;28;20049;-62
2023/09/09 08:30:59;;;;;;;85.85;73.18;;;;;;;21.21;100.00;101533.31;5070087;28;20040;-62
2023/09/09 08:33:28;;;;;;;100.57;79.25;;;;;;;21.28;100.00;101537.06;5069838;28;20044;-62
2023/09/09 08:36:01;;;;;;;97.20;77.35;;;;;;;21.27;100.00;101533.56;5069257;28;20048;-62
2023/09/09 08:38:29;;;;;;;97.90;77.30;;;;;;;21.44;100.00;101537.19;5066129;28;20121;-62
2023/09/09 08:41:05;;;;;;;97.25;76.13;;;;;;;21.66;100.00;101545.75;5067390;28;20101;-62
2023/09/09 08:43:50;;;;;;;90.63;71.05;;;;;;;21.93;100.00;101549.28;5072828;28;20375;-62
2023/09/09 08:46:22;;;;;;;85.43;71.13;;;;;;;22.02;100.00;101555.53;5072606;28;20048;-62
2023/09/09 08:48:51;;;;;;;83.43;68.73;;;;;;;22.27;100.00;101543.13;5068892;28;20572;-61
2023/09/09 08:51:29;;;;;;;89.15;73.82;;;;;;;22.51;100.00;101557.66;5068264;28;20059;-61
2023/09/09 08:53:58;;;;;;;83.68;69.22;;;;;;;22.72;100.00;101558.06;5068591;28;20052;-62
2023/09/09 08:56:27;;;;;;;81.85;68.68;;;;;;;22.92;100.00;101557.81;5068952;28;20047;-62
2023/09/09 08:58:57;;;;;;;82.07;68.43;;;;;;;23.10;100.00;101561.16;5070932;28;20047;-62
2023/09/09 09:01:28;;;;;;;82.32;67.63;;;;;;;23.34;100.00;101567.63;5072590;28;20049;-56
2023/09/09 09:03:58;;;;;;;81.72;66.40;;;;;;;23.43;100.00;101569.28;5068632;28;20044;-56
2023/09/09 09:06:29;;;;;;;75.03;63.35;;;;;;;23.64;100.00;101570.59;5068149;28;20128;-56
2023/09/09 09:08:57;;;;;;;71.30;63.38;;;;;;;23.77;100.00;101572.78;5066079;28;20147;-56
2023/09/09 09:11:26;;;;;;;72.03;63.22;;;;;;;23.92;100.00;101570.28;5069246;28;20128;-56
2023/09/09 09:13:55;;;;;;;71.72;61.47;;;;;;;24.21;100.00;101571.56;5068929;28;20425;-61
2023/09/09 09:16:24;;;;;;;69.32;61.80;;;;;;;24.47;100.00;101572.16;5068065;28;20512;-61
2023/09/09 09:18:52;;;;;;;63.25;55.85;;;;;;;24.69;100.00;101564.34;5068103;28;20170;-61
2023/09/09 09:21:21;;;;;;;66.07;58.70;;;;;;;24.89;100.00;101567.41;5069895;28;20559;-61
2023/09/09 09:23:51;;;;;;;61.75;54.47;;;;;;;25.09;100.00;101566.97;5067595;28;20102;-61
2023/09/09 09:26:26;;;;;;;61.80;55.05;;;;;;;25.25;100.00;101566.84;5064014;28;20063;-61
2023/09/09 09:28:55;;;;;;;60.25;53.50;;;;;;;25.56;100.00;101562.41;5068228;28;21107;-61
2023/09/09 09:31:24;;;;;;;59.85;53.40;;;;;;;25.53;100.00;101562.78;5068302;28;20106;-61
2023/09/09 09:33:52;;;;;;;60.35;53.75;;;;;;;25.74;100.00;101562.94;5069307;28;20056;-61
2023/09/09 09:36:21;;;;;;;58.03;51.72;;;;;;;25.89;100.00;101564.78;5070182;28;20068;-61
2023/09/09 09:38:52;;;;;;;56.45;50.65;;;;;;;26.18;100.00;101560.47;5067749;28;20036;-61
2023/09/09 09:41:22;;;;;;;54.00;48.40;;;;;;;26.42;100.00;101562.03;5068023;28;20040;-61
2023/09/09 09:43:52;;;;;;;54.47;48.50;;;;;;;26.63;100.00;101561.28;5071324;28;20110;-61
2023/09/09 09:46:22;;;;;;;51.63;45.47;;;;;;;26.80;100.00;101562.72;5068777;28;20045;-61
2023/09/09 09:48:53;;;;;;;;;;;;;;;27.00;100.00;101559.44;5068150;28;20044;-61
2023/09/09 09:51:21;;;;;;;51.95;46.47;;;;;;;27.20;100.00;101553.38;5070724;28;19956;-61
2023/09/09 09:53:54;;;;;;;48.63;43.60;;;;;;;27.37;100.00;101557.53;5071900;28;20041;-61
2023/09/09 09:56:22;;;;;;;47.20;42.05;;;;;;;27.48;100.00;101558.84;5068171;28;20063;-61
2023/09/09 09:58:51;;;;;;;49.15;43.83;;;;;;;27.70;100.00;101558.81;5068281;28;20066;-61
2023/09/09 10:01:19;;;;;;;52.03;44.63;;;;;;;27.79;100.00;101561.16;5068231;28;20084;-61
2023/09/09 10:03:51;;;;;;;45.10;40.05;;;;;;;28.13;100.00;101558.72;5066214;28;20053;-61
2023/09/09 10:06:25;;;;;;;42.67;38.25;;;;;;;28.23;100.00;101564.56;5067835;28;20072;-61
2023/09/09 10:09:03;;;;;;;44.63;40.17;;;;;;;28.70;100.00;101558.56;5070754;28;20118;-60
2023/09/09 10:11:40;;;;;;;44.83;40.13;;;;;;;28.36;100.00;101563.81;5071836;28;20475;-60
2023/09/09 10:14:13;;;;;;;39.28;35.00;;;;;;;28.70;100.00;101566.69;5069739;28;20570;-60
2023/09/09 10:16:43;;;;;;;41.00;36.75;;;;;;;28.87;100.00;101559.84;5083169;28;20139;-61
2023/09/09 10:19:13;;;;;;;38.55;34.55;;;;;;;29.22;100.00;101556.16;5068172;28;20045;-60
2023/09/09 10:21:43;;;;;;;38.30;34.40;;;;;;;29.49;100.00;101552.47;5066952;28;20063;-61
2023/09/09 10:24:15;;;;;;;34.70;30.63;;;;;;;29.80;100.00;101542.00;5067200;28;20051;-60
2023/09/09 10:26:44;;;;;;;37.42;31.75;;;;;;;29.87;100.00;101548.25;5067691;28;20070;-61
2023/09/09 10:29:15;;;;;;;33.22;29.77;;;;;;;30.20;100.00;101543.78;5070590;28;20040;-60
2023/09/09 10:31:45;;;;;;;34.08;30.48;;;;;;;30.46;100.00;101545.59;5071481;28;20076;-60
2023/09/09 10:34:16;;;;;;;33.60;30.17;;;;;;;30.40;100.00;101538.28;5070624;28;20053;-60
2023/09/09 10:36:45;;;;;;;30.85;27.65;;;;;;;30.50;100.00;101541.38;5066806;28;20064;-60
2023/09/09 10:39:30;;;;;;;31.38;26.83;;;;;;;30.52;100.00;101536.59;5066914;28;20055;-60
2023/09/09 10:41:59;;;;;;;29.55;26.50;;;;;;;30.76;100.00;101540.44;5067706;28;20407;-60
2023/09/09 10:44:27;;;;;;;26.85;23.85;;;;;;;31.18;100.00;101535.38;5068011;28;20048;-60
2023/09/09 10:46:56;;;;;;;27.30;24.30;;;;;;;31.42;100.00;101537.47;5067390;28;20542;-61
2023/09/09 10:49:27;;;;;;;24.08;21.30;;;;;;;31.44;100.00;101538.06;5069249;28;20054;-60
2023/09/09 10:51:56;;;;;;;21.90;19.52;;;;;;;31.64;100.00;101536.03;5071127;28;20462;-61
2023/09/09 10:54:26;;;;;;;22.67;20.33;;;;;;;31.78;100.00;101536.75;5071303;28;20044;-61
2023/09/09 10:56:59;;;;;;;21.42;19.25;;;;;;;31.84;100.00;101535.00;5071139;28;20076;-61
2023/09/09 10:59:30;;;;;;;20.50;18.35;;;;;;;31.98;100.00;101535.69;5070195;28;20111;-60
2023/09/09 11:02:13;;;;;;;18.10;16.15;;;;;;;31.94;99.24;101542.63;5069540;28;20393;-63
2023/09/09 11:04:42;;;;;;;22.52;17.52;;;;;;;32.02;100.00;101543.16;5070798;28;20051;-60
2023/09/09 11:07:13;;;;;;;21.52;16.83;;;;;;;32.22;99.18;101536.69;5069547;28;20052;-59
2023/09/09 11:09:52;;;;;;;18.70;14.90;;;;;;;32.17;92.43;101548.25;5071175;28;20143;-60
2023/09/09 11:12:28;;;;;;;20.02;17.70;;;;;;;32.23;100.00;101545.66;5070990;28;20052;-59